createdAt,value
2022-12-14T00:01:10.123Z,100505.50
2022-12-14T00:04:14.457Z,100493.53
2022-12-14T00:07:18.686Z,100491.81
2022-12-14T00:10:23.078Z,100490.97
2022-12-14T00:13:27.147Z,100487.53
2022-12-14T00:16:35.117Z,100487.53
2022-12-14T00:19:39.451Z,100484.97
2022-12-14T00:22:44.148Z,100479.84
2022-12-14T00:25:49.011Z,100472.97
2022-12-14T00:28:55.856Z,100478.09
2022-12-14T00:32:00.793Z,100474.69
2022-12-14T00:35:06.254Z,100475.53
2022-12-14T00:38:11.028Z,100466.97
2022-12-14T00:41:15.418Z,100471.25
2022-12-14T00:44:19.940Z,100465.25
2022-12-14T00:47:24.742Z,100454.97
2022-12-14T00:50:29.337Z,100451.53
2022-12-14T00:53:33.702Z,100445.56
2022-12-14T00:56:37.719Z,100448.97
2022-12-14T00:59:42.041Z,100448.13
2022-12-14T01:02:46.699Z,100445.56
2022-12-14T01:05:51.694Z,100454.06
2022-12-14T01:08:57.909Z,100449.81
2022-12-14T01:12:02.336Z,100447.22
2022-12-14T01:15:07.193Z,100447.22
2022-12-14T01:18:11.706Z,100444.66
2022-12-14T01:21:22.878Z,100438.66
2022-12-14T01:24:27.177Z,100445.53
2022-12-14T01:27:32.070Z,100446.34
2022-12-14T01:30:39.871Z,100445.50
2022-12-14T01:33:47.493Z,100443.78
2022-12-14T01:36:51.861Z,100430.94
2022-12-14T01:39:56.299Z,100430.94
2022-12-14T01:43:00.804Z,100432.66
2022-12-14T01:46:05.048Z,100420.66
2022-12-14T01:49:44.499Z,100417.22
2022-12-14T01:52:56.558Z,100414.66
2022-12-14T01:56:01.091Z,100416.38
2022-12-14T01:59:19.068Z,100412.06
2022-12-14T02:02:25.031Z,100412.94
2022-12-14T02:05:34.274Z,100403.50
2022-12-14T02:08:43.337Z,100397.53
2022-12-14T02:12:04.505Z,100391.53
2022-12-14T02:15:10.387Z,100394.91
2022-12-14T02:18:22.801Z,100394.91
2022-12-14T02:21:36.857Z,100394.06
2022-12-14T02:25:41.637Z,100393.22
2022-12-14T02:29:19.554Z,100389.78
2022-12-14T02:33:12.599Z,100377.81
2022-12-14T02:37:08.619Z,100379.47
2022-12-14T02:40:41.189Z,100378.63
2022-12-14T02:44:03.788Z,100376.06
2022-12-14T02:47:54.362Z,100381.22
2022-12-14T02:51:31.515Z,100385.50
2022-12-14T02:54:49.928Z,100372.66
2022-12-14T02:58:10.855Z,100372.63
2022-12-14T03:01:24.553Z,100373.47
2022-12-14T03:04:29.420Z,100377.78
2022-12-14T03:07:45.029Z,100379.50
2022-12-14T03:11:00.656Z,100369.25
2022-12-14T03:14:21.095Z,100369.22
2022-12-14T03:17:30.424Z,100359.81
2022-12-14T03:20:37.487Z,100347.00
2022-12-14T03:23:48.730Z,100345.28
2022-12-14T03:27:02.762Z,100341.84
2022-12-14T03:30:18.420Z,100343.53
2022-12-14T03:33:31.363Z,100344.38
2022-12-14T03:36:50.430Z,100340.13
2022-12-14T03:39:55.119Z,100329.00
2022-12-14T03:43:26.682Z,100323.88
2022-12-14T03:46:43.527Z,100326.44
2022-12-14T03:49:54.583Z,100319.59
2022-12-14T03:53:11.074Z,100314.47
2022-12-14T03:57:04.126Z,100313.63
2022-12-14T04:00:17.552Z,100304.19
2022-12-14T04:03:27.946Z,100309.31
2022-12-14T04:07:03.953Z,100303.31
2022-12-14T04:10:36.265Z,100299.91
2022-12-14T04:14:06.245Z,100291.34
2022-12-14T04:17:37.811Z,100289.63
2022-12-14T04:21:30.906Z,100291.34
2022-12-14T04:25:04.627Z,100292.19
2022-12-14T04:28:38.372Z,100288.78
2022-12-14T04:31:55.124Z,100296.47
2022-12-14T04:35:12.341Z,100290.47
2022-12-14T04:38:40.213Z,100289.63
2022-12-14T04:41:52.027Z,100288.75
2022-12-14T04:45:10.709Z,100278.50
2022-12-14T04:48:36.719Z,100275.91
2022-12-14T04:51:50.629Z,100277.59
2022-12-14T04:55:33.025Z,100269.91
2022-12-14T04:58:40.081Z,100269.91
2022-12-14T05:02:08.454Z,100269.91
2022-12-14T05:05:28.169Z,100276.75
2022-12-14T05:09:15.293Z,100259.66
2022-12-14T05:12:56.778Z,100257.06
2022-12-14T05:16:01.312Z,100256.25
2022-12-14T05:19:10.180Z,100249.41
2022-12-14T05:22:14.763Z,100240.88
2022-12-14T05:25:19.276Z,100239.97
2022-12-14T05:28:23.560Z,100240.88
2022-12-14T05:31:27.792Z,100244.25
2022-12-14T05:34:32.491Z,100234.00
2022-12-14T05:37:37.004Z,100236.59
2022-12-14T05:40:41.390Z,100236.59
2022-12-14T05:43:45.691Z,100239.19
2022-12-14T05:46:54.012Z,100234.06
2022-12-14T05:49:58.461Z,100238.31
2022-12-14T05:53:02.649Z,100235.75
2022-12-14T05:56:09.834Z,100233.19
2022-12-14T05:59:15.833Z,100234.03
2022-12-14T06:02:22.336Z,100221.22
2022-12-14T06:05:27.140Z,100221.22
2022-12-14T06:08:37.592Z,100216.94
2022-12-14T06:11:49.845Z,100216.97
2022-12-14T06:15:00.344Z,100212.69
2022-12-14T06:18:08.748Z,100212.69
2022-12-14T06:21:19.063Z,100210.16
2022-12-14T06:24:24.734Z,100205.91
2022-12-14T06:27:39.511Z,100207.59
2022-12-14T06:30:48.184Z,100209.31
2022-12-14T06:33:54.609Z,100209.31
2022-12-14T06:36:59.010Z,100207.59
2022-12-14T06:40:03.341Z,100203.34
2022-12-14T06:43:08.306Z,100200.78
2022-12-14T06:46:16.127Z,100194.81
2022-12-14T06:49:20.369Z,100198.22
2022-12-14T06:52:26.944Z,100200.78
2022-12-14T06:55:33.201Z,100201.66
2022-12-14T06:58:37.534Z,100193.09
2022-12-14T07:01:42.463Z,100188.81
2022-12-14T07:04:46.923Z,100194.81
2022-12-14T07:07:51.391Z,100184.56
2022-12-14T07:11:01.979Z,100189.66
2022-12-14T07:14:07.345Z,100193.09
2022-12-14T07:17:12.085Z,100191.41
2022-12-14T07:20:16.830Z,100186.28
2022-12-14T07:23:27.579Z,100188.84
2022-12-14T07:26:32.488Z,100188.84
2022-12-14T07:29:36.865Z,100194.81
2022-12-14T07:32:41.276Z,100188.84
2022-12-14T07:35:45.637Z,100193.94
2022-12-14T07:38:51.533Z,100189.69
2022-12-14T07:41:56.233Z,100198.22
2022-12-14T07:45:01.492Z,100191.44
2022-12-14T07:48:07.404Z,100197.41
2022-12-14T07:51:15.337Z,100198.25
2022-12-14T07:54:19.638Z,100196.53
2022-12-14T07:57:23.951Z,100197.44
2022-12-14T08:00:28.302Z,100197.41
2022-12-14T08:03:32.863Z,100190.63
2022-12-14T08:06:39.363Z,100188.91
2022-12-14T08:09:43.604Z,100188.91
2022-12-14T08:12:50.369Z,100176.97
2022-12-14T08:15:55.301Z,100184.66
2022-12-14T08:19:00.650Z,100181.25
2022-12-14T08:22:05.088Z,100191.47
2022-12-14T08:25:09.751Z,100189.81
2022-12-14T08:28:14.559Z,100189.78
2022-12-14T08:31:22.636Z,100188.09
2022-12-14T08:34:26.908Z,100188.09
2022-12-14T08:37:31.187Z,100200.91
2022-12-14T08:40:36.514Z,100187.25
2022-12-14T08:43:41.604Z,100184.69
2022-12-14T08:46:45.996Z,100184.69
2022-12-14T08:49:50.247Z,100176.13
2022-12-14T08:52:55.096Z,100172.72
2022-12-14T08:56:04.792Z,100173.56
2022-12-14T08:59:15.961Z,100173.56
2022-12-14T09:02:33.590Z,100171.84
2022-12-14T09:05:38.607Z,100177.81
2022-12-14T09:08:43.089Z,100172.69
2022-12-14T09:11:47.482Z,100171.81
2022-12-14T09:14:52.053Z,100168.41
2022-12-14T09:17:56.192Z,100164.97
2022-12-14T09:21:00.849Z,100164.09
2022-12-14T09:24:06.597Z,100158.13
2022-12-14T09:27:11.568Z,100158.97
2022-12-14T09:30:19.337Z,100152.09
2022-12-14T09:33:29.440Z,100144.41
2022-12-14T09:36:38.021Z,100141.81
2022-12-14T09:39:42.548Z,100134.94
2022-12-14T09:43:04.169Z,100137.47
2022-12-14T09:46:27.147Z,100130.63
2022-12-14T09:49:54.211Z,100128.03
2022-12-14T09:53:07.281Z,100128.84
2022-12-14T09:56:20.479Z,100115.09
2022-12-14T09:59:29.496Z,100116.72
2022-12-14T10:03:19.665Z,100108.94
2022-12-14T10:06:38.270Z,100104.59
2022-12-14T10:10:19.682Z,100089.94
2022-12-14T10:14:06.596Z,100087.22
2022-12-14T10:18:05.405Z,100093.00
2022-12-14T10:21:17.058Z,100091.78
2022-12-14T10:24:37.120Z,100071.78
2022-12-14T10:28:09.700Z,100060.38
2022-12-14T10:32:04.287Z,100057.44
2022-12-14T10:35:17.389Z,100039.78
2022-12-14T10:43:06.831Z,100023.72
2022-12-14T10:47:02.335Z,100019.94
2022-12-14T10:50:49.740Z,100010.97
2022-12-14T10:54:32.591Z,100011.56
2022-12-14T10:58:00.071Z,99996.69
2022-12-14T11:01:18.825Z,100001.78
2022-12-14T11:05:13.235Z,99996.69
2022-12-14T11:09:01.081Z,99994.78
2022-12-14T11:21:34.533Z,99987.22
2022-12-14T11:29:44.356Z,99981.25
2022-12-14T11:33:13.949Z,99979.41
2022-12-14T11:36:38.754Z,99981.19
2022-12-14T11:39:43.419Z,99979.41
2022-12-14T11:42:50.873Z,99972.75
2022-12-14T11:45:58.854Z,99976.25
2022-12-14T11:49:38.997Z,99972.88
2022-12-14T11:52:43.885Z,99971.09
2022-12-14T11:55:58.866Z,99968.28
2022-12-14T11:59:19.676Z,99969.03
2022-12-14T12:02:52.857Z,99966.94
2022-12-14T12:06:18.863Z,99959.66
2022-12-14T12:09:38.586Z,99952.91
2022-12-14T12:13:01.110Z,99943.34
2022-12-14T12:16:24.948Z,99941.06
2022-12-14T12:19:54.007Z,99936.78
2022-12-14T12:23:30.538Z,99932.72
2022-12-14T12:30:48.363Z,99944.97
2022-12-14T12:34:07.474Z,99936.56
2022-12-14T12:37:26.868Z,99947.13
2022-12-14T12:41:01.806Z,99938.50
2022-12-14T12:44:43.244Z,99940.31
2022-12-14T12:48:30.169Z,99940.25
2022-12-14T12:52:00.162Z,99932.53
2022-12-14T12:55:17.606Z,99946.31
2022-12-14T12:58:34.398Z,99940.28
2022-12-14T13:01:47.075Z,99936.72
2022-12-14T13:04:53.791Z,99928.97
2022-12-14T13:08:15.934Z,99931.50
2022-12-14T13:11:37.540Z,99929.88
2022-12-14T13:14:50.134Z,99933.44
2022-12-14T13:18:56.451Z,99932.78
2022-12-14T13:21:54.591Z,99932.06
2022-12-14T13:25:16.232Z,99939.97
2022-12-14T13:29:09.307Z,99939.13
2022-12-14T13:32:45.071Z,99932.34
2022-12-14T13:36:26.505Z,99939.41
2022-12-14T13:40:18.791Z,99932.72
2022-12-14T13:43:58.691Z,99933.72
2022-12-14T13:47:36.126Z,99935.63
2022-12-14T13:51:09.147Z,99939.13
2022-12-14T13:54:40.217Z,99945.19
2022-12-14T14:02:35.648Z,99948.38
2022-12-14T14:05:49.171Z,99945.97
2022-12-14T14:08:54.302Z,99943.44
2022-12-14T14:12:41.770Z,99945.28
2022-12-14T14:16:26.845Z,99942.81
2022-12-14T15:50:43.579Z,99972.88
2022-12-14T16:16:40.809Z,99968.81
2022-12-14T16:21:30.603Z,99966.28
2022-12-14T16:26:06.127Z,99963.72
2022-12-14T17:06:31.312Z,99954.34
2022-12-14T17:09:44.252Z,99961.19
2022-12-14T17:13:02.196Z,99949.25
2022-12-14T17:16:21.149Z,99945.00
2022-12-14T17:19:41.475Z,99944.16
2022-12-14T17:23:35.801Z,99939.09
2022-12-14T17:27:04.739Z,99936.56
2022-12-14T17:30:22.399Z,99944.25
2022-12-14T17:33:35.498Z,99946.03
2022-12-14T17:36:44.351Z,99946.00
2022-12-14T17:39:53.864Z,99956.28
2022-12-14T17:43:04.252Z,99952.88
2022-12-14T17:46:41.155Z,99958.00
2022-12-14T17:57:51.825Z,99952.91
2022-12-14T18:01:42.353Z,99951.22
2022-12-14T18:05:31.857Z,99947.03
2022-12-14T18:08:47.237Z,99959.88
2022-12-14T18:12:23.211Z,99954.72
2022-12-14T18:15:40.687Z,99963.28
2022-12-14T18:18:50.192Z,99955.63
2022-12-14T18:22:05.682Z,99963.31
2022-12-14T18:26:17.402Z,99962.53
2022-12-14T18:29:22.345Z,99962.50
2022-12-14T18:33:55.302Z,99971.16
2022-12-14T18:37:42.748Z,99966.00
2022-12-14T18:53:58.380Z,99975.47
2022-12-14T19:02:26.376Z,99960.94
2022-12-14T19:05:36.866Z,99961.81
2022-12-14T19:09:24.582Z,99960.97
2022-12-14T19:13:19.143Z,99967.00
2022-12-14T20:47:28.545Z,99955.41
2022-12-14T21:00:52.703Z,99987.09
2022-12-14T21:05:43.577Z,100011.06
2022-12-14T21:19:04.489Z,100002.53
2022-12-14T21:22:51.210Z,100004.25
2022-12-14T22:04:25.952Z,100011.97
2022-12-14T22:12:43.311Z,100008.59
2022-12-14T22:16:07.664Z,100018.84
2022-12-14T22:19:19.703Z,100030.78
2022-12-14T22:22:49.736Z,100030.78
2022-12-14T22:26:38.173Z,100020.53
2022-12-14T22:30:15.088Z,100023.06
2022-12-14T22:33:52.204Z,100027.34
2022-12-14T22:41:42.941Z,100020.47
2022-12-14T22:48:57.958Z,100023.84
2022-12-14T22:52:25.067Z,100034.03
2022-12-14T23:04:11.074Z,100028.06
2022-12-14T23:07:32.938Z,100051.97
2022-12-14T23:11:05.914Z,100057.97
2022-12-14T23:14:39.400Z,100053.72
2022-12-14T23:18:08.123Z,100050.28
2022-12-14T23:21:41.320Z,100052.88
2022-12-14T23:25:06.954Z,100053.72
2022-12-14T23:28:57.845Z,100051.13
2022-12-14T23:32:26.462Z,100059.69
2022-12-14T23:36:05.471Z,100041.72
2022-12-14T23:39:31.535Z,100038.31
2022-12-14T23:43:08.409Z,100033.19
2022-12-14T23:46:37.626Z,100018.66
2022-12-14T23:50:32.529Z,100022.94
2022-12-14T23:55:02.093Z,100020.41
2022-12-14T23:59:13.776Z,100023.84
